Time;durP1;ratioP1;P1;durP2;ratioP2;P2;SDS_P1;SDS_P2;PMS_P1;PMS_P2;Temp;Humidity;BMP_temperature;BMP_pressure;BME280_temperature;BME280_humidity;BME280_pressure;Samples;Min_cycle;Max_cycle;Signal;HPM_P1;HPM_P2
2021/12/29 00:00:45;;;;;;;6.17;2.60;;;10.50;99.90;;;;;;5073450;28;20225;-87
2021/12/29 00:03:12;;;;;;;3.70;2.50;;;10.50;99.90;;;;;;5073232;28;20201;-86
2021/12/29 00:05:45;;;;;;;2.63;2.07;;;10.40;99.90;;;;;;5073501;28;20205;-83
2021/12/29 00:08:15;;;;;;;5.37;2.23;;;10.40;99.90;;;;;;5072939;28;20256;-83
2021/12/29 00:10:44;;;;;;;4.60;1.80;;;10.40;99.90;;;;;;5073168;28;20544;-86
2021/12/29 00:13:11;;;;;;;4.33;2.30;;;10.40;99.90;;;;;;5073155;28;20226;-86
2021/12/29 00:15:45;;;;;;;4.13;2.23;;;10.30;99.90;;;;;;5074593;28;20649;-85
2021/12/29 00:18:15;;;;;;;6.57;2.20;;;10.40;99.90;;;;;;5073634;28;20187;-84
2021/12/29 00:20:45;;;;;;;4.30;2.10;;;10.40;99.90;;;;;;5073175;28;20214;-86
2021/12/29 00:23:13;;;;;;;3.17;2.00;;;10.30;99.90;;;;;;5072904;28;20224;-85
2021/12/29 00:25:42;;;;;;;4.03;2.00;;;10.40;99.90;;;;;;5073196;28;20217;-83
2021/12/29 00:28:10;;;;;;;3.83;2.20;;;10.50;99.90;;;;;;5072839;28;20673;-83
2021/12/29 00:30:39;;;;;;;5.17;2.30;;;10.40;99.90;;;;;;5073106;28;20629;-83
2021/12/29 00:33:09;;;;;;;3.87;1.93;;;10.40;99.90;;;;;;5072799;28;20916;-84
2021/12/29 00:35:42;;;;;;;4.53;2.30;;;10.40;99.90;;;;;;5072610;28;20195;-85
2021/12/29 00:38:11;;;;;;;3.50;2.30;;;10.40;99.90;;;;;;5076816;28;20208;-84
2021/12/29 00:40:41;;;;;;;3.60;1.93;;;10.40;99.90;;;;;;5076451;28;20221;-83
2021/12/29 00:43:10;;;;;;;3.43;2.03;;;10.40;99.90;;;;;;5075003;28;20586;-85
2021/12/29 00:45:43;;;;;;;3.10;2.10;;;10.40;99.90;;;;;;5076669;28;20205;-86
2021/12/29 00:48:14;;;;;;;6.83;3.00;;;10.40;99.90;;;;;;5075066;28;21109;-84
2021/12/29 00:50:46;;;;;;;2.63;2.30;;;10.40;99.90;;;;;;5076523;28;20198;-83
2021/12/29 00:53:16;;;;;;;5.07;2.20;;;10.40;99.90;;;;;;5076220;28;20198;-84
2021/12/29 00:55:45;;;;;;;4.23;2.50;;;10.30;99.90;;;;;;5075837;28;20209;-84
2021/12/29 00:58:14;;;;;;;2.80;2.20;;;10.40;99.90;;;;;;5076249;28;20228;-85
2021/12/29 01:00:44;;;;;;;4.57;2.40;;;10.40;99.90;;;;;;5076029;28;20700;-85
2021/12/29 01:03:14;;;;;;;7.20;2.33;;;10.40;99.90;;;;;;5076173;28;20196;-83
2021/12/29 01:05:44;;;;;;;4.83;2.63;;;10.40;99.90;;;;;;5076335;28;20190;-85
2021/12/29 01:08:12;;;;;;;4.25;3.03;;;10.40;99.90;;;;;;5076346;28;20765;-85
2021/12/29 01:10:42;;;;;;;3.53;2.40;;;10.50;99.90;;;;;;5076722;28;20194;-84
2021/12/29 01:13:14;;;;;;;7.43;2.50;;;10.50;99.90;;;;;;5075788;28;20204;-83
2021/12/29 01:15:57;;;;;;;4.30;2.43;;;10.50;99.90;;;;;;5077028;28;20407;-84
2021/12/29 01:18:28;;;;;;;5.77;2.73;;;10.40;99.90;;;;;;5076278;28;20244;-86
2021/12/29 01:20:56;;;;;;;2.40;2.20;;;10.40;99.90;;;;;;5075652;28;20218;-84
2021/12/29 01:23:24;;;;;;;5.43;2.43;;;10.40;99.90;;;;;;5075755;28;20554;-85
2021/12/29 01:25:52;;;;;;;3.53;2.33;;;10.40;99.90;;;;;;5076257;28;20217;-85
2021/12/29 01:28:25;;;;;;;2.87;2.03;;;10.50;99.90;;;;;;5075950;28;20528;-85
2021/12/29 01:30:54;;;;;;;4.67;2.40;;;10.50;99.90;;;;;;5075887;28;20190;-86
2021/12/29 01:33:23;;;;;;;4.53;2.27;;;10.50;99.90;;;;;;5075841;28;20209;-85
2021/12/29 01:35:53;;;;;;;8.27;2.57;;;10.50;99.90;;;;;;5075782;28;20208;-85
2021/12/29 01:38:19;;;;;;;4.90;2.53;;;10.50;99.90;;;;;;5075500;28;20201;-86
2021/12/29 01:40:52;;;;;;;4.93;3.47;;;10.50;99.90;;;;;;5074928;28;20228;-85
2021/12/29 01:43:21;;;;;;;5.50;3.17;;;10.40;99.90;;;;;;5074937;28;20190;-84
2021/12/29 01:45:48;;;;;;;5.70;3.23;;;10.30;99.90;;;;;;5075373;28;20555;-86
2021/12/29 01:48:17;;;;;;;5.20;3.78;;;10.40;99.90;;;;;;5073307;28;20934;-86
2021/12/29 01:50:50;;;;;;;5.13;2.90;;;10.50;99.90;;;;;;5075018;28;20186;-86
2021/12/29 01:53:28;;;;;;;6.87;3.57;;;10.40;99.90;;;;;;5075251;28;20241;-85
2021/12/29 01:55:55;;;;;;;7.50;3.60;;;10.50;99.90;;;;;;5074822;28;20194;-87
2021/12/29 01:58:32;;;;;;;8.40;3.40;;;10.40;99.90;;;;;;5074864;28;20205;-86
2021/12/29 02:01:09;;;;;;;4.73;2.93;;;10.40;99.90;;;;;;5074429;28;20315;-84
2021/12/29 02:03:41;;;;;;;8.17;3.70;;;10.50;99.90;;;;;;5074647;28;20565;-87
2021/12/29 02:06:08;;;;;;;7.80;3.30;;;10.40;99.90;;;;;;5074592;28;20201;-84
2021/12/29 02:08:38;;;;;;;14.23;3.10;;;10.50;99.90;;;;;;5074938;28;20190;-85
2021/12/29 02:11:07;;;;;;;8.90;3.47;;;10.40;99.90;;;;;;5074933;28;20190;-83
2021/12/29 02:13:37;;;;;;;5.67;3.00;;;10.40;99.90;;;;;;5075361;28;20202;-86
2021/12/29 02:16:06;;;;;;;7.83;3.33;;;10.40;99.90;;;;;;5074572;28;20205;-83
2021/12/29 02:18:40;;;;;;;9.03;3.10;;;10.40;99.90;;;;;;5074886;28;20244;-86
2021/12/29 02:21:20;;;;;;;6.60;3.10;;;10.40;99.90;;;;;;5074703;28;20217;-84
2021/12/29 02:24:16;;;;;;;4.63;2.93;;;10.40;99.90;;;;;;5074401;28;20197;-84
2021/12/29 02:26:46;;;;;;;6.72;3.30;;;10.40;99.90;;;;;;5072862;28;20902;-85
2021/12/29 02:29:16;;;;;;;6.73;3.67;;;10.40;99.90;;;;;;5074316;28;20210;-85
2021/12/29 02:31:44;;;;;;;5.40;2.80;;;10.40;99.90;;;;;;5074538;28;20197;-84
2021/12/29 02:34:16;;;;;;;8.27;3.10;;;10.40;99.90;;;;;;5074626;28;20194;-85
2021/12/29 02:36:47;;;;;;;6.27;2.70;;;10.40;99.90;;;;;;5074082;28;20620;-87
2021/12/29 02:39:18;;;;;;;5.47;3.00;;;10.40;99.90;;;;;;5073981;28;20202;-83
2021/12/29 02:41:51;;;;;;;6.50;2.90;;;10.40;99.90;;;;;;5073867;28;20225;-84
2021/12/29 02:44:24;;;;;;;7.13;3.27;;;10.30;99.90;;;;;;5073829;28;20653;-85
2021/12/29 02:46:53;;;;;;;8.17;2.53;;;10.30;99.90;;;;;;5073987;28;20265;-85
2021/12/29 02:49:22;;;;;;;5.30;3.00;;;10.30;99.90;;;;;;5073730;28;20625;-84
2021/12/29 02:51:53;;;;;;;7.63;3.10;;;10.30;99.90;;;;;;5073489;28;20209;-85
2021/12/29 02:54:21;;;;;;;5.57;2.83;;;10.30;99.90;;;;;;5073790;28;20190;-84
2021/12/29 02:56:49;;;;;;;3.60;2.90;;;10.30;99.90;;;;;;5074061;28;20202;-84
2021/12/29 02:59:17;;;;;;;4.07;2.63;;;10.30;99.90;;;;;;5072972;28;20186;-84
2021/12/29 03:01:51;;;;;;;5.73;2.77;;;10.30;99.90;;;;;;5074476;28;20229;-86
2021/12/29 03:04:19;;;;;;;4.13;3.25;;;10.40;99.90;;;;;;5073460;28;20442;-85
2021/12/29 03:06:47;;;;;;;4.30;2.77;;;10.50;99.90;;;;;;5073697;28;20652;-84
2021/12/29 03:09:22;;;;;;;4.60;3.43;;;10.50;99.90;;;;;;5073871;28;20210;-85
2021/12/29 03:11:48;;;;;;;4.20;2.70;;;10.40;99.90;;;;;;5074318;28;20204;-85
2021/12/29 03:14:18;;;;;;;6.53;3.23;;;10.40;99.90;;;;;;5073912;28;20586;-84
2021/12/29 03:16:48;;;;;;;3.97;2.80;;;10.40;99.90;;;;;;5074146;28;20194;-85
2021/12/29 03:19:16;;;;;;;4.23;2.87;;;10.50;99.90;;;;;;5073528;28;20210;-85
2021/12/29 03:21:44;;;;;;;4.33;2.70;;;10.50;99.90;;;;;;5073534;28;20225;-85
2021/12/29 03:24:14;;;;;;;5.20;3.70;;;10.40;99.90;;;;;;5073583;28;20712;-85
2021/12/29 03:26:43;;;;;;;4.10;3.37;;;10.40;99.90;;;;;;5073490;28;20255;-84
2021/12/29 03:29:11;;;;;;;5.23;3.10;;;10.40;99.90;;;;;;5073870;28;20190;-85
2021/12/29 03:31:41;;;;;;;4.73;3.17;;;10.50;99.90;;;;;;5073790;28;20209;-84
2021/12/29 03:34:15;;;;;;;3.20;2.90;;;10.50;99.90;;;;;;5073600;28;20281;-84
2021/12/29 03:36:43;;;;;;;5.73;3.20;;;10.40;99.90;;;;;;5072622;28;20194;-86
2021/12/29 03:39:11;;;;;;;5.03;3.43;;;10.40;99.90;;;;;;5073293;28;20194;-84
2021/12/29 03:41:45;;;;;;;3.63;3.10;;;10.40;99.90;;;;;;5073125;28;20237;-85
2021/12/29 03:44:13;;;;;;;5.93;3.20;;;10.40;99.90;;;;;;5073076;28;20210;-85
2021/12/29 03:46:41;;;;;;;3.50;2.97;;;10.50;99.90;;;;;;5073211;28;20608;-86
2021/12/29 03:49:13;;;;;;;5.60;3.33;;;10.50;99.90;;;;;;5073142;28;20201;-84
2021/12/29 03:51:46;;;;;;;4.47;3.03;;;10.40;99.90;;;;;;5073164;28;20190;-85
2021/12/29 03:54:19;;;;;;;9.90;3.57;;;10.30;99.90;;;;;;5073274;28;20217;-84
2021/12/29 03:56:48;;;;;;;10.77;3.60;;;10.30;99.90;;;;;;5073631;28;20210;-85
2021/12/29 03:59:21;;;;;;;5.43;3.07;;;10.40;99.90;;;;;;5072928;28;20680;-84
2021/12/29 04:01:50;;;;;;;4.50;3.00;;;10.40;99.90;;;;;;5073034;28;20213;-85
2021/12/29 04:04:23;;;;;;;4.63;2.83;;;10.40;99.90;;;;;;5071750;28;20202;-87
2021/12/29 04:06:50;;;;;;;7.40;3.40;;;10.40;99.90;;;;;;5073044;28;20190;-88
2021/12/29 04:09:18;;;;;;;4.47;3.17;;;10.30;99.90;;;;;;5077754;28;20220;-85
2021/12/29 04:11:50;;;;;;;5.03;2.80;;;10.40;99.90;;;;;;5095283;28;20323;-86
2021/12/29 04:14:25;;;;;;;3.90;3.00;;;10.40;99.90;;;;;;5095887;28;20193;-84
2021/12/29 04:16:53;;;;;;;4.17;2.63;;;10.30;99.90;;;;;;5097185;28;20228;-84
2021/12/29 04:19:39;;;;;;;4.47;3.27;;;10.30;99.90;;;;;;5097117;28;20207;-85
2021/12/29 04:22:08;;;;;;;5.10;3.27;;;10.30;99.90;;;;;;5095664;28;20290;-84
2021/12/29 04:24:37;;;;;;;4.47;3.27;;;10.30;99.90;;;;;;5096666;28;20578;-83
2021/12/29 04:27:15;;;;;;;4.50;3.10;;;10.30;99.90;;;;;;5095944;28;20250;-85
2021/12/29 04:29:46;;;;;;;3.00;2.67;;;10.20;99.90;;;;;;5095880;28;20189;-86
2021/12/29 04:32:13;;;;;;;4.43;3.30;;;10.20;99.90;;;;;;5096345;28;20204;-84
2021/12/29 04:34:41;;;;;;;4.13;3.00;;;10.20;99.90;;;;;;5096545;28;20201;-85
2021/12/29 04:37:09;;;;;;;4.57;3.00;;;10.30;99.90;;;;;;5096559;28;20617;-83
2021/12/29 04:39:42;;;;;;;8.60;3.30;;;10.30;99.90;;;;;;5096554;28;20186;-86
2021/12/29 04:42:12;;;;;;;7.30;3.17;;;10.40;99.90;;;;;;5096151;28;20244;-83
2021/12/29 04:44:42;;;;;;;6.53;3.13;;;10.50;99.90;;;;;;5096471;28;20216;-84
2021/12/29 04:47:18;;;;;;;6.00;2.90;;;10.70;99.90;;;;;;5095958;28;20580;-83
2021/12/29 04:49:47;;;;;;;7.47;2.93;;;10.60;99.90;;;;;;5096066;28;20213;-84
2021/12/29 04:52:15;;;;;;;5.20;2.63;;;10.70;99.90;;;;;;5095571;28;20294;-83
2021/12/29 04:54:42;;;;;;;6.73;2.50;;;10.70;99.90;;;;;;5095998;28;20611;-83
2021/12/29 04:57:09;;;;;;;4.57;2.57;;;10.50;99.90;;;;;;5096061;28;20218;-82
2021/12/29 04:59:38;;;;;;;8.73;2.63;;;10.70;99.90;;;;;;5095904;28;20297;-84
2021/12/29 05:02:07;;;;;;;7.87;2.70;;;10.70;99.90;;;;;;5096007;28;20224;-87
2021/12/29 05:04:45;;;;;;;5.60;2.97;;;10.80;99.90;;;;;;5095557;28;20232;-85
2021/12/29 05:10:04;;;;;;;6.80;2.80;;;11.00;99.90;;;;;;5078018;28;20202;-83
2021/12/29 05:12:37;;;;;;;6.27;2.40;;;11.00;99.90;;;;;;5095747;28;20214;-83
2021/12/29 05:15:07;;;;;;;5.80;2.40;;;11.00;99.90;;;;;;5095642;28;20207;-83
2021/12/29 05:17:35;;;;;;;8.53;2.63;;;11.00;99.90;;;;;;5095396;28;20573;-83
2021/12/29 05:20:04;;;;;;;5.63;2.20;;;11.00;99.90;;;;;;5095969;28;20193;-83
2021/12/29 05:22:31;;;;;;;6.67;2.90;;;11.00;99.90;;;;;;5095017;28;20221;-84
2021/12/29 05:25:00;;;;;;;5.70;2.83;;;11.00;99.90;;;;;;5095239;28;20210;-84
2021/12/29 05:27:28;;;;;;;4.60;2.63;;;10.80;99.90;;;;;;5095451;28;20201;-86
2021/12/29 05:29:56;;;;;;;7.17;2.70;;;10.80;99.90;;;;;;5095086;28;20202;-83
2021/12/29 05:32:23;;;;;;;7.30;2.80;;;10.60;99.90;;;;;;5095146;28;20671;-84
2021/12/29 05:34:55;;;;;;;5.33;2.43;;;10.60;99.90;;;;;;5095383;28;20189;-83
2021/12/29 05:37:25;;;;;;;7.75;3.55;;;10.60;99.90;;;;;;5094317;28;20487;-85
2021/12/29 05:39:57;;;;;;;8.80;3.30;;;10.80;99.90;;;;;;5095196;28;20653;-84
2021/12/29 05:42:25;;;;;;;7.57;3.20;;;10.90;99.90;;;;;;5095030;28;20218;-82
2021/12/29 05:44:54;;;;;;;7.30;2.67;;;10.90;99.90;;;;;;5095037;28;20194;-85
2021/12/29 05:47:22;;;;;;;7.90;3.10;;;10.70;99.90;;;;;;5094842;28;20222;-84
2021/12/29 05:49:51;;;;;;;6.60;3.20;;;10.70;99.90;;;;;;5095190;28;20220;-84
2021/12/29 05:52:25;;;;;;;7.70;2.77;;;10.60;99.90;;;;;;5094814;28;20687;-83
2021/12/29 05:54:52;;;;;;;6.90;2.93;;;10.40;99.90;;;;;;5094851;28;20204;-83
2021/12/29 05:57:25;;;;;;;10.70;3.33;;;10.50;99.90;;;;;;5095238;28;20209;-83
2021/12/29 05:59:53;;;;;;;6.87;2.80;;;10.40;99.90;;;;;;5094978;28;20644;-83
2021/12/29 06:02:21;;;;;;;10.70;3.10;;;10.40;99.90;;;;;;5094125;28;20237;-82
2021/12/29 06:04:49;;;;;;;7.23;2.77;;;10.50;99.90;;;;;;5094929;28;20202;-84
2021/12/29 06:07:16;;;;;;;5.53;2.77;;;10.40;99.90;;;;;;5095063;28;20204;-86
2021/12/29 06:09:50;;;;;;;9.53;3.10;;;10.40;99.90;;;;;;5094925;28;20193;-84
2021/12/29 06:12:23;;;;;;;7.93;3.00;;;10.40;99.90;;;;;;5094607;28;20675;-83
2021/12/29 06:14:55;;;;;;;7.55;3.92;;;10.30;99.90;;;;;;5093691;28;20434;-84
2021/12/29 06:17:28;;;;;;;7.30;3.03;;;10.30;99.90;;;;;;5094506;28;20205;-86
2021/12/29 06:19:56;;;;;;;6.77;3.07;;;10.30;99.90;;;;;;5094584;28;20205;-82
2021/12/29 06:22:24;;;;;;;9.17;3.23;;;10.30;99.90;;;;;;5094351;28;20593;-85
2021/12/29 06:24:54;;;;;;;8.77;2.80;;;10.20;99.90;;;;;;5094327;28;20209;-85
2021/12/29 06:27:24;;;;;;;8.30;2.90;;;10.20;99.90;;;;;;5094251;28;20208;-84
2021/12/29 06:29:53;;;;;;;8.80;2.90;;;10.20;99.90;;;;;;5093875;28;20205;-85
2021/12/29 06:32:21;;;;;;;9.93;3.43;;;10.10;99.90;;;;;;5094290;28;20189;-83
2021/12/29 06:34:51;;;;;;;10.03;2.97;;;10.20;99.90;;;;;;5093523;28;20193;-85
2021/12/29 06:37:19;;;;;;;10.00;2.87;;;10.10;99.90;;;;;;5094498;28;20207;-81
2021/12/29 06:39:46;;;;;;;7.77;2.90;;;10.10;99.90;;;;;;5093846;28;20250;-84
2021/12/29 06:42:18;;;;;;;8.60;2.43;;;10.20;99.90;;;;;;5093764;28;20236;-83
2021/12/29 06:44:48;;;;;;;7.33;2.60;;;10.10;99.90;;;;;;5092498;28;20495;-84
2021/12/29 06:47:19;;;;;;;6.80;2.83;;;10.10;99.90;;;;;;5093863;28;20288;-85
2021/12/29 06:49:46;;;;;;;5.77;3.10;;;10.10;99.90;;;;;;5093892;28;20722;-85
2021/12/29 06:52:16;;;;;;;8.93;2.93;;;10.10;99.90;;;;;;5092010;28;20479;-84
2021/12/29 06:54:46;;;;;;;8.77;3.23;;;10.10;99.90;;;;;;5094104;28;20208;-84
2021/12/29 06:57:20;;;;;;;5.77;2.80;;;10.10;99.90;;;;;;5094037;28;20208;-83
2021/12/29 06:59:49;;;;;;;9.07;3.10;;;10.00;99.90;;;;;;5093980;28;20197;-83
2021/12/29 07:02:16;;;;;;;3.03;2.60;;;9.90;99.90;;;;;;5075654;28;20616;-84
2021/12/29 07:04:45;;;;;;;7.23;3.00;;;9.80;99.90;;;;;;5093712;28;20675;-83
2021/12/29 07:07:16;;;;;;;11.20;3.30;;;9.80;99.90;;;;;;5093788;28;20205;-84
2021/12/29 07:09:45;;;;;;;9.67;4.60;;;9.90;99.90;;;;;;5093673;28;20212;-85
2021/12/29 07:12:14;;;;;;;7.53;3.40;;;9.80;99.90;;;;;;5093890;28;20190;-84
2021/12/29 07:14:46;;;;;;;11.97;3.30;;;9.70;99.90;;;;;;5092280;28;20258;-85
2021/12/29 07:17:16;;;;;;;10.03;3.80;;;9.60;99.90;;;;;;5093382;28;20220;-84
2021/12/29 07:19:45;;;;;;;13.87;4.00;;;9.70;99.90;;;;;;5093524;28;20211;-84
2021/12/29 07:22:13;;;;;;;11.07;3.30;;;9.70;99.90;;;;;;5093476;28;20221;-84
2021/12/29 07:24:40;;;;;;;7.30;3.23;;;9.60;99.90;;;;;;5093164;28;20208;-84
2021/12/29 07:27:08;;;;;;;6.97;3.27;;;9.60;99.90;;;;;;5093195;28;20212;-82
2021/12/29 07:29:37;;;;;;;10.03;3.80;;;9.60;99.90;;;;;;5086465;28;20246;-85
2021/12/29 07:32:06;;;;;;;12.95;4.35;;;9.70;99.90;;;;;;5092201;28;20410;-83
2021/12/29 07:34:39;;;;;;;8.70;4.20;;;9.60;99.90;;;;;;5093368;28;20586;-84
2021/12/29 07:37:07;;;;;;;10.37;3.67;;;9.70;99.90;;;;;;5093218;28;20252;-85
2021/12/29 07:39:33;;;;;;;10.80;3.50;;;9.50;99.90;;;;;;5072635;28;20198;-83
2021/12/29 07:42:00;;;;;;;16.73;3.57;;;9.70;99.90;;;;;;5072929;28;20650;-86
2021/12/29 07:44:28;;;;;;;10.37;3.50;;;9.60;99.90;;;;;;5072942;28;20208;-85
2021/12/29 07:46:57;;;;;;;13.70;3.67;;;9.70;99.90;;;;;;5075702;28;20249;-83
2021/12/29 07:49:29;;;;;;;8.90;3.30;;;9.70;99.90;;;;;;5075773;28;20543;-85
2021/12/29 07:51:58;;;;;;;13.17;3.53;;;9.70;99.90;;;;;;5077089;28;20194;-84
2021/12/29 07:54:28;;;;;;;14.63;4.57;;;9.70;99.90;;;;;;5077117;28;20213;-86
2021/12/29 07:56:55;;;;;;;12.67;4.13;;;9.80;99.90;;;;;;5076791;28;20213;-86
2021/12/29 07:59:23;;;;;;;15.10;4.10;;;9.70;99.90;;;;;;5086111;28;20198;-85
2021/12/29 08:01:50;;;;;;;11.10;3.67;;;9.70;99.90;;;;;;5085694;28;20186;-85
2021/12/29 08:04:19;;;;;;;12.37;3.90;;;9.70;99.90;;;;;;5082177;28;20202;-85
2021/12/29 08:06:47;;;;;;;13.17;3.40;;;9.80;99.90;;;;;;5087036;28;20206;-85
2021/12/29 08:09:17;;;;;;;11.07;3.30;;;9.80;99.90;;;;;;5096054;28;20201;-84
2021/12/29 08:11:46;;;;;;;14.40;3.80;;;9.80;99.90;;;;;;5096458;28;20189;-84
2021/12/29 08:14:14;;;;;;;12.20;3.77;;;9.80;99.90;;;;;;5097936;27;20205;-82
2021/12/29 08:16:41;;;;;;;18.43;3.83;;;9.70;99.90;;;;;;5096759;28;20193;-87
2021/12/29 08:19:10;;;;;;;12.83;4.30;;;9.90;99.90;;;;;;5097041;28;20213;-85
2021/12/29 08:21:43;;;;;;;9.70;3.13;;;9.80;99.90;;;;;;5096793;28;20201;-85
2021/12/29 08:24:12;;;;;;;8.33;3.73;;;9.80;99.90;;;;;;5096816;28;20236;-84
2021/12/29 08:26:43;;;;;;;14.00;4.90;;;9.80;99.90;;;;;;5096654;28;20200;-85
2021/12/29 08:29:12;;;;;;;13.60;3.80;;;9.70;99.90;;;;;;5096810;28;20200;-84
2021/12/29 08:31:41;;;;;;;14.07;4.60;;;9.80;99.90;;;;;;5096673;28;20561;-86
2021/12/29 08:34:08;;;;;;;11.07;3.50;;;9.90;99.90;;;;;;5096645;28;20205;-86
2021/12/29 08:36:35;;;;;;;11.17;3.40;;;9.70;99.90;;;;;;5096378;28;20200;-87
2021/12/29 08:39:07;;;;;;;15.73;3.70;;;9.70;99.90;;;;;;5097008;28;20564;-85
2021/12/29 08:41:37;;;;;;;15.97;4.37;;;9.80;99.90;;;;;;5090498;28;20648;-86
2021/12/29 08:44:10;;;;;;;16.10;4.27;;;9.70;99.90;;;;;;5075926;28;20221;-85
2021/12/29 08:46:40;;;;;;;9.43;3.47;;;9.70;99.90;;;;;;5075842;28;20231;-86
2021/12/29 08:49:09;;;;;;;9.07;3.73;;;9.80;99.90;;;;;;5076234;28;20209;-86
2021/12/29 08:51:42;;;;;;;13.57;3.70;;;9.70;99.90;;;;;;5076486;28;20197;-86
2021/12/29 08:54:16;;;;;;;11.13;3.57;;;9.90;99.90;;;;;;5075683;28;20202;-85
2021/12/29 08:56:46;;;;;;;10.67;3.90;;;9.80;99.90;;;;;;5075011;28;20195;-84
2021/12/29 08:59:18;;;;;;;18.13;3.73;;;9.90;99.90;;;;;;5075790;28;20202;-86
2021/12/29 09:01:47;;;;;;;20.93;3.83;;;9.80;99.90;;;;;;5075584;28;20559;-87
2021/12/29 09:04:16;;;;;;;20.97;4.10;;;9.70;99.90;;;;;;5075597;28;20210;-86
2021/12/29 09:06:43;;;;;;;11.70;4.37;;;9.70;99.90;;;;;;5075136;28;20201;-85
2021/12/29 09:09:15;;;;;;;12.77;3.93;;;9.70;99.90;;;;;;5085944;28;20209;-85
2021/12/29 09:11:42;;;;;;;10.97;3.40;;;9.70;99.90;;;;;;5082796;28;20212;-84
2021/12/29 09:14:16;;;;;;;11.43;3.57;;;9.70;99.90;;;;;;5087165;28;20210;-85
2021/12/29 09:16:44;;;;;;;13.97;3.50;;;9.60;99.90;;;;;;5093639;28;20192;-84
2021/12/29 09:19:13;;;;;;;14.53;3.90;;;9.60;99.90;;;;;;5085906;28;20197;-84
2021/12/29 09:21:43;;;;;;;14.20;3.80;;;9.60;99.90;;;;;;5095722;28;20193;-85
2021/12/29 09:24:11;;;;;;;14.30;3.50;;;9.60;99.90;;;;;;5081064;28;20332;-84
2021/12/29 09:26:38;;;;;;;12.20;4.00;;;9.70;99.90;;;;;;5081097;28;20201;-82
2021/12/29 09:29:07;;;;;;;11.97;4.77;;;9.70;99.90;;;;;;5088411;28;20223;-82
2021/12/29 09:31:40;;;;;;;15.90;4.37;;;9.70;99.90;;;;;;5095006;28;20604;-82
2021/12/29 09:34:08;;;;;;;15.00;3.97;;;9.70;99.90;;;;;;5095022;28;20201;-81
2021/12/29 09:36:35;;;;;;;13.13;4.10;;;9.70;99.90;;;;;;5087542;28;20277;-82
2021/12/29 09:39:04;;;;;;;15.77;4.53;;;9.80;99.90;;;;;;5094001;28;20205;-81
2021/12/29 09:41:32;;;;;;;11.70;3.87;;;9.80;99.90;;;;;;5093950;28;20204;-82
2021/12/29 09:44:00;;;;;;;11.20;4.03;;;9.80;99.90;;;;;;5094422;28;20233;-81
2021/12/29 09:46:28;;;;;;;17.67;3.80;;;9.90;99.90;;;;;;5094400;28;20208;-82
2021/12/29 09:49:02;;;;;;;14.50;4.20;;;9.90;99.90;;;;;;5094227;28;20190;-82
2021/12/29 09:51:31;;;;;;;17.40;4.40;;;9.90;99.90;;;;;;5089227;28;20342;-82
2021/12/29 09:54:03;;;;;;;16.87;4.37;;;10.00;99.90;;;;;;5089443;28;20205;-83
2021/12/29 09:56:31;;;;;;;15.77;4.43;;;9.90;99.90;;;;;;5094121;28;20196;-82
2021/12/29 09:59:05;;;;;;;19.53;5.00;;;9.90;99.90;;;;;;5094006;28;20189;-83
2021/12/29 10:01:35;;;;;;;17.35;6.65;;;9.80;99.90;;;;;;5093440;28;20781;-82
2021/12/29 10:04:05;;;;;;;16.90;5.70;;;10.00;99.90;;;;;;5093691;28;20233;-82
2021/12/29 10:06:32;;;;;;;14.87;6.60;;;10.00;99.90;;;;;;5084809;28;20232;-81
2021/12/29 10:09:11;;;;;;;16.37;7.13;;;10.00;99.90;;;;;;5072888;28;20619;-81
2021/12/29 10:11:38;;;;;;;12.40;6.47;;;10.10;99.90;;;;;;5073394;28;20213;-83
2021/12/29 10:14:09;;;;;;;18.67;7.10;;;10.10;99.90;;;;;;5073640;28;20606;-81
2021/12/29 10:16:46;;;;;;;19.97;8.10;;;10.10;99.90;;;;;;5074250;28;20190;-82
2021/12/29 10:19:16;;;;;;;21.70;8.20;;;10.00;99.90;;;;;;5073670;28;20289;-84
2021/12/29 10:21:45;;;;;;;15.17;8.07;;;10.10;99.90;;;;;;5073598;28;20194;-84
2021/12/29 10:24:12;;;;;;;21.70;8.80;;;10.20;99.90;;;;;;5073500;28;20248;-84
2021/12/29 10:26:43;;;;;;;21.67;8.33;;;10.30;99.90;;;;;;5073740;28;20681;-81
2021/12/29 10:29:13;;;;;;;23.47;8.80;;;10.20;99.90;;;;;;5073558;28;20201;-83
2021/12/29 10:31:45;;;;;;;22.43;9.00;;;10.30;99.90;;;;;;5074283;28;20217;-85
2021/12/29 10:34:21;;;;;;;19.70;7.87;;;10.40;99.90;;;;;;5074864;28;20201;-86
2021/12/29 10:36:51;;;;;;;27.60;10.57;;;10.30;99.90;;;;;;5073843;28;20423;-84
2021/12/29 10:39:21;;;;;;;24.90;9.00;;;10.40;99.90;;;;;;5075505;28;20202;-83
2021/12/29 10:41:52;;;;;;;24.40;9.00;;;10.50;99.90;;;;;;5074686;28;20208;-84
2021/12/29 10:44:28;;;;;;;22.10;8.40;;;10.50;99.90;;;;;;5073871;28;20210;-85
2021/12/29 10:47:12;;;;;;;24.60;8.70;;;10.50;99.90;;;;;;5073456;28;20221;-81
2021/12/29 10:49:52;;;;;;;22.40;8.30;;;10.50;99.90;;;;;;5073910;28;20193;-83
2021/12/29 10:52:33;;;;;;;26.50;7.47;;;10.50;99.90;;;;;;5073360;28;20208;-83
2021/12/29 10:55:04;;;;;;;24.30;8.43;;;10.50;99.90;;;;;;5073701;28;20213;-83
2021/12/29 10:57:33;;;;;;;21.13;7.67;;;10.60;99.90;;;;;;5073554;28;20210;-84
2021/12/29 11:00:04;;;;;;;21.40;7.50;;;10.60;99.90;;;;;;5073442;28;20186;-83
2021/12/29 11:02:35;;;;;;;19.70;6.03;;;10.60;99.90;;;;;;5073296;28;20199;-84
2021/12/29 11:05:07;;;;;;;23.93;6.20;;;10.50;99.90;;;;;;5072907;28;20229;-83
2021/12/29 11:07:37;;;;;;;23.37;6.67;;;10.60;99.90;;;;;;5073079;28;20212;-84
2021/12/29 11:10:09;;;;;;;17.20;5.33;;;10.40;99.90;;;;;;5073274;28;20573;-85
2021/12/29 11:12:47;;;;;;;19.43;5.17;;;10.50;99.90;;;;;;5073652;28;20232;-83
2021/12/29 11:15:19;;;;;;;17.40;5.30;;;10.50;99.90;;;;;;5073564;28;20198;-84
2021/12/29 11:17:49;;;;;;;19.80;4.97;;;10.60;99.90;;;;;;5073456;28;20210;-85
2021/12/29 11:20:26;;;;;;;19.43;4.80;;;10.60;99.90;;;;;;5072862;28;20574;-85
2021/12/29 11:23:05;;;;;;;16.30;4.10;;;10.60;99.90;;;;;;5072967;28;20201;-85
2021/12/29 11:25:33;;;;;;;12.53;3.63;;;10.60;99.90;;;;;;5072923;28;20292;-82
2021/12/29 11:28:01;;;;;;;13.77;3.60;;;10.70;99.90;;;;;;5072882;28;20652;-85
2021/12/29 11:30:31;;;;;;;14.53;4.17;;;10.80;99.90;;;;;;5080678;28;20197;-83
2021/12/29 11:33:09;;;;;;;14.67;3.97;;;10.70;99.90;;;;;;5078264;28;20204;-83
2021/12/29 11:35:43;;;;;;;17.37;4.60;;;10.70;99.90;;;;;;5092433;28;20189;-85
2021/12/29 11:38:11;;;;;;;15.93;4.30;;;10.70;99.90;;;;;;5093460;28;20217;-83
2021/12/29 11:40:49;;;;;;;13.83;3.47;;;10.60;99.90;;;;;;5093551;28;20202;-83
2021/12/29 11:43:19;;;;;;;10.70;3.47;;;10.60;99.90;;;;;;5093287;28;20221;-86
2021/12/29 11:45:49;;;;;;;10.20;3.23;;;10.60;99.90;;;;;;5093335;28;20281;-87
2021/12/29 11:48:20;;;;;;;13.70;4.25;;;10.70;99.90;;;;;;5092464;28;20425;-85
2021/12/29 11:50:57;;;;;;;9.60;3.73;;;10.60;99.90;;;;;;5093739;28;20233;-86
2021/12/29 11:53:34;;;;;;;14.90;3.60;;;10.50;99.90;;;;;;5093529;28;20308;-84
2021/12/29 11:56:03;;;;;;;9.53;3.37;;;10.50;99.90;;;;;;5080057;28;20241;-83
2021/12/29 11:58:32;;;;;;;9.20;3.77;;;10.60;99.90;;;;;;5073889;28;20212;-82
2021/12/29 12:01:06;;;;;;;10.53;3.87;;;10.50;99.90;;;;;;5090061;28;20293;-83
2021/12/29 12:03:42;;;;;;;10.67;4.73;;;10.50;99.90;;;;;;5092400;28;20243;-83
2021/12/29 12:06:24;;;;;;;11.93;4.03;;;10.60;99.90;;;;;;5092405;28;20202;-83
2021/12/29 12:09:05;;;;;;;9.63;3.77;;;10.60;99.90;;;;;;5092373;28;20570;-81
2021/12/29 12:11:42;;;;;;;8.80;4.73;;;10.50;99.90;;;;;;5081915;28;20205;-83
2021/12/29 12:14:19;;;;;;;11.30;4.10;;;10.40;99.90;;;;;;5072457;28;20190;-84
2021/12/29 12:16:55;;;;;;;6.30;3.90;;;10.50;99.90;;;;;;5071928;28;20205;-81
2021/12/29 12:19:23;;;;;;;10.17;4.73;;;10.50;99.90;;;;;;5072270;28;20292;-84
2021/12/29 12:22:05;;;;;;;11.32;4.53;;;10.40;99.90;;;;;;5071746;28;20428;-83
2021/12/29 12:24:33;;;;;;;11.50;4.33;;;10.40;99.90;;;;;;5072077;28;20323;-82
2021/12/29 12:27:03;;;;;;;10.37;4.50;;;10.40;99.90;;;;;;5086215;28;20212;-81
2021/12/29 12:29:32;;;;;;;8.43;4.60;;;10.50;99.90;;;;;;5092243;28;20201;-85
2021/12/29 12:32:10;;;;;;;12.87;5.23;;;10.50;99.90;;;;;;5093832;28;20227;-83
2021/12/29 12:34:49;;;;;;;9.10;4.57;;;10.30;99.90;;;;;;5095160;28;20570;-83
2021/12/29 12:37:20;;;;;;;10.47;4.73;;;10.30;99.90;;;;;;5095765;28;20209;-82
2021/12/29 12:39:56;;;;;;;9.13;4.47;;;10.40;99.90;;;;;;5090560;28;20202;-82
2021/12/29 12:42:25;;;;;;;13.40;5.00;;;10.30;99.90;;;;;;5075379;28;20196;-82
2021/12/29 12:44:55;;;;;;;12.07;5.53;;;10.30;99.90;;;;;;5075134;28;20285;-81
2021/12/29 12:47:21;;;;;;;7.43;3.67;;;10.40;99.90;;;;;;5074781;28;20233;-81
2021/12/29 12:49:52;;;;;;;8.40;4.30;;;10.40;99.90;;;;;;5074987;28;20212;-81
2021/12/29 12:52:23;;;;;;;10.37;4.37;;;10.40;99.90;;;;;;5074705;28;20719;-81
2021/12/29 12:54:57;;;;;;;9.80;3.80;;;10.40;99.90;;;;;;5074867;28;20252;-83
2021/12/29 12:57:30;;;;;;;11.00;4.50;;;10.40;99.90;;;;;;5092271;28;20554;-82
2021/12/29 13:00:09;;;;;;;7.23;4.03;;;10.50;99.90;;;;;;5095727;28;20679;-80
2021/12/29 13:02:44;;;;;;;9.03;4.63;;;10.40;99.90;;;;;;5094958;28;20201;-83
2021/12/29 13:05:15;;;;;;;9.73;4.40;;;10.50;99.90;;;;;;5087763;28;20236;-82